sensor_id;sensor_type;location;lat;lon;timestamp;temperature;humidity
32506;DHT22;18955;51.224;8.482;2023-06-04T00:00:06;14.40;68.20
32506;DHT22;18955;51.224;8.482;2023-06-04T00:02:32;14.40;68.10
32506;DHT22;18955;51.224;8.482;2023-06-04T00:04:59;14.30;67.80
32506;DHT22;18955;51.224;8.482;2023-06-04T00:07:25;14.30;68.20
32506;DHT22;18955;51.224;8.482;2023-06-04T00:09:52;14.20;68.30
32506;DHT22;18955;51.224;8.482;2023-06-04T00:12:19;14.20;68.40
32506;DHT22;18955;51.224;8.482;2023-06-04T00:14:45;14.20;68.40
32506;DHT22;18955;51.224;8.482;2023-06-04T00:17:11;14.10;68.00
32506;DHT22;18955;51.224;8.482;2023-06-04T00:19:40;14.10;68.20
32506;DHT22;18955;51.224;8.482;2023-06-04T00:22:07;14.10;68.20
32506;DHT22;18955;51.224;8.482;2023-06-04T00:24:34;14.00;68.00
32506;DHT22;18955;51.224;8.482;2023-06-04T00:27:00;13.90;67.80
32506;DHT22;18955;51.224;8.482;2023-06-04T00:29:27;13.90;67.90
32506;DHT22;18955;51.224;8.482;2023-06-04T00:31:53;13.90;68.10
32506;DHT22;18955;51.224;8.482;2023-06-04T00:34:19;13.90;68.00
32506;DHT22;18955;51.224;8.482;2023-06-04T00:36:45;13.80;68.10
32506;DHT22;18955;51.224;8.482;2023-06-04T00:39:12;13.80;68.00
32506;DHT22;18955;51.224;8.482;2023-06-04T00:41:38;13.70;68.60
32506;DHT22;18955;51.224;8.482;2023-06-04T00:44:04;13.70;67.70
32506;DHT22;18955;51.224;8.482;2023-06-04T00:46:32;13.60;67.80
32506;DHT22;18955;51.224;8.482;2023-06-04T00:49:02;13.60;67.50
32506;DHT22;18955;51.224;8.482;2023-06-04T00:51:30;13.60;67.80
32506;DHT22;18955;51.224;8.482;2023-06-04T00:53:58;13.60;67.70
32506;DHT22;18955;51.224;8.482;2023-06-04T00:56:24;13.50;67.40
32506;DHT22;18955;51.224;8.482;2023-06-04T00:58:50;13.50;67.90
32506;DHT22;18955;51.224;8.482;2023-06-04T01:03:55;13.40;67.60
32506;DHT22;18955;51.224;8.482;2023-06-04T01:06:38;13.30;67.40
32506;DHT22;18955;51.224;8.482;2023-06-04T01:09:05;13.30;67.50
32506;DHT22;18955;51.224;8.482;2023-06-04T01:11:36;13.30;67.30
32506;DHT22;18955;51.224;8.482;2023-06-04T01:14:04;13.20;67.40
32506;DHT22;18955;51.224;8.482;2023-06-04T01:16:47;13.20;67.30
32506;DHT22;18955;51.224;8.482;2023-06-04T01:25:03;13.00;67.30
32506;DHT22;18955;51.224;8.482;2023-06-04T01:27:30;13.00;67.10
32506;DHT22;18955;51.224;8.482;2023-06-04T01:29:59;13.00;67.20
32506;DHT22;18955;51.224;8.482;2023-06-04T01:32:26;12.90;67.60
32506;DHT22;18955;51.224;8.482;2023-06-04T01:34:53;12.90;67.20
32506;DHT22;18955;51.224;8.482;2023-06-04T01:37:19;12.90;67.20
32506;DHT22;18955;51.224;8.482;2023-06-04T01:39:45;12.80;67.10
32506;DHT22;18955;51.224;8.482;2023-06-04T01:42:11;12.80;67.20
32506;DHT22;18955;51.224;8.482;2023-06-04T01:44:38;12.80;67.10
32506;DHT22;18955;51.224;8.482;2023-06-04T01:47:04;12.70;67.00
32506;DHT22;18955;51.224;8.482;2023-06-04T01:49:30;12.70;67.00
32506;DHT22;18955;51.224;8.482;2023-06-04T01:51:57;12.60;67.00
32506;DHT22;18955;51.224;8.482;2023-06-04T01:54:23;12.60;66.90
32506;DHT22;18955;51.224;8.482;2023-06-04T01:56:49;12.60;67.10
32506;DHT22;18955;51.224;8.482;2023-06-04T01:59:15;12.50;67.00
32506;DHT22;18955;51.224;8.482;2023-06-04T02:01:42;12.50;66.90
32506;DHT22;18955;51.224;8.482;2023-06-04T02:04:08;12.50;67.00
32506;DHT22;18955;51.224;8.482;2023-06-04T02:06:34;12.40;67.00
32506;DHT22;18955;51.224;8.482;2023-06-04T02:09:03;12.40;67.20
32506;DHT22;18955;51.224;8.482;2023-06-04T02:11:29;12.40;67.20
32506;DHT22;18955;51.224;8.482;2023-06-04T02:13:55;12.30;67.10
32506;DHT22;18955;51.224;8.482;2023-06-04T02:16:22;12.30;67.20
32506;DHT22;18955;51.224;8.482;2023-06-04T02:18:48;12.30;67.30
32506;DHT22;18955;51.224;8.482;2023-06-04T02:21:14;12.20;67.30
32506;DHT22;18955;51.224;8.482;2023-06-04T02:23:40;12.20;67.40
32506;DHT22;18955;51.224;8.482;2023-06-04T02:26:06;12.10;67.40
32506;DHT22;18955;51.224;8.482;2023-06-04T02:28:32;12.10;67.40
32506;DHT22;18955;51.224;8.482;2023-06-04T02:30:59;12.10;67.40
32506;DHT22;18955;51.224;8.482;2023-06-04T02:33:25;12.10;67.40
32506;DHT22;18955;51.224;8.482;2023-06-04T02:35:51;12.10;67.50
32506;DHT22;18955;51.224;8.482;2023-06-04T02:38:17;12.00;67.40
32506;DHT22;18955;51.224;8.482;2023-06-04T02:40:44;12.00;67.40
32506;DHT22;18955;51.224;8.482;2023-06-04T02:43:11;11.90;67.30
32506;DHT22;18955;51.224;8.482;2023-06-04T02:45:37;11.90;67.40
32506;DHT22;18955;51.224;8.482;2023-06-04T02:48:03;11.90;67.30
32506;DHT22;18955;51.224;8.482;2023-06-04T02:50:29;11.90;67.40
32506;DHT22;18955;51.224;8.482;2023-06-04T02:52:56;11.80;67.30
32506;DHT22;18955;51.224;8.482;2023-06-04T02:55:22;11.80;67.40
32506;DHT22;18955;51.224;8.482;2023-06-04T02:57:50;11.80;67.30
32506;DHT22;18955;51.224;8.482;2023-06-04T03:00:18;11.70;67.30
32506;DHT22;18955;51.224;8.482;2023-06-04T03:02:45;11.70;67.30
32506;DHT22;18955;51.224;8.482;2023-06-04T03:05:13;11.70;67.40
32506;DHT22;18955;51.224;8.482;2023-06-04T03:07:43;11.60;67.40
32506;DHT22;18955;51.224;8.482;2023-06-04T03:10:11;11.60;67.30
32506;DHT22;18955;51.224;8.482;2023-06-04T03:12:37;11.60;67.30
32506;DHT22;18955;51.224;8.482;2023-06-04T03:15:04;11.50;67.30
32506;DHT22;18955;51.224;8.482;2023-06-04T03:17:31;11.50;67.30
32506;DHT22;18955;51.224;8.482;2023-06-04T03:19:58;11.50;67.30
32506;DHT22;18955;51.224;8.482;2023-06-04T03:22:24;11.40;67.30
32506;DHT22;18955;51.224;8.482;2023-06-04T03:24:51;11.40;67.30
32506;DHT22;18955;51.224;8.482;2023-06-04T03:27:19;11.40;67.20
32506;DHT22;18955;51.224;8.482;2023-06-04T03:29:46;11.30;67.30
32506;DHT22;18955;51.224;8.482;2023-06-04T03:32:13;11.30;67.30
32506;DHT22;18955;51.224;8.482;2023-06-04T03:34:42;11.30;67.40
32506;DHT22;18955;51.224;8.482;2023-06-04T03:37:09;11.20;67.40
32506;DHT22;18955;51.224;8.482;2023-06-04T03:39:35;11.20;67.50
32506;DHT22;18955;51.224;8.482;2023-06-04T03:42:05;11.20;67.60
32506;DHT22;18955;51.224;8.482;2023-06-04T03:44:32;11.20;67.50
32506;DHT22;18955;51.224;8.482;2023-06-04T03:46:59;11.10;67.30
32506;DHT22;18955;51.224;8.482;2023-06-04T03:49:26;11.10;67.30
32506;DHT22;18955;51.224;8.482;2023-06-04T03:51:53;11.10;67.40
32506;DHT22;18955;51.224;8.482;2023-06-04T03:54:21;11.00;67.20
32506;DHT22;18955;51.224;8.482;2023-06-04T03:56:49;11.00;67.30
32506;DHT22;18955;51.224;8.482;2023-06-04T03:59:16;11.00;67.20
32506;DHT22;18955;51.224;8.482;2023-06-04T04:01:42;11.00;67.40
32506;DHT22;18955;51.224;8.482;2023-06-04T04:04:09;10.90;67.30
32506;DHT22;18955;51.224;8.482;2023-06-04T04:06:35;10.90;67.30
32506;DHT22;18955;51.224;8.482;2023-06-04T04:09:03;10.90;67.30
32506;DHT22;18955;51.224;8.482;2023-06-04T04:11:30;10.80;67.30
32506;DHT22;18955;51.224;8.482;2023-06-04T04:13:56;10.80;67.20
32506;DHT22;18955;51.224;8.482;2023-06-04T04:16:24;10.80;67.30
32506;DHT22;18955;51.224;8.482;2023-06-04T04:18:51;10.70;67.30
32506;DHT22;18955;51.224;8.482;2023-06-04T04:21:17;10.70;67.30
32506;DHT22;18955;51.224;8.482;2023-06-04T04:23:46;10.70;67.40
32506;DHT22;18955;51.224;8.482;2023-06-04T04:26:13;10.70;67.40
32506;DHT22;18955;51.224;8.482;2023-06-04T04:28:43;10.60;67.40
32506;DHT22;18955;51.224;8.482;2023-06-04T04:31:10;10.60;67.50
32506;DHT22;18955;51.224;8.482;2023-06-04T04:33:37;10.60;67.50
32506;DHT22;18955;51.224;8.482;2023-06-04T04:36:06;10.50;67.60
32506;DHT22;18955;51.224;8.482;2023-06-04T04:38:36;10.50;67.70
32506;DHT22;18955;51.224;8.482;2023-06-04T04:41:04;10.50;67.70
32506;DHT22;18955;51.224;8.482;2023-06-04T04:43:32;10.50;67.80
32506;DHT22;18955;51.224;8.482;2023-06-04T04:46:03;10.50;67.70
32506;DHT22;18955;51.224;8.482;2023-06-04T04:48:31;10.40;67.70
32506;DHT22;18955;51.224;8.482;2023-06-04T04:50:58;10.40;67.80
32506;DHT22;18955;51.224;8.482;2023-06-04T04:53:25;10.40;67.90
32506;DHT22;18955;51.224;8.482;2023-06-04T04:55:52;10.40;67.90
32506;DHT22;18955;51.224;8.482;2023-06-04T04:58:18;10.30;68.00
32506;DHT22;18955;51.224;8.482;2023-06-04T05:00:45;10.40;68.10
32506;DHT22;18955;51.224;8.482;2023-06-04T05:03:13;10.30;68.10
32506;DHT22;18955;51.224;8.482;2023-06-04T05:05:40;10.30;68.70
32506;DHT22;18955;51.224;8.482;2023-06-04T05:08:08;10.30;68.70
32506;DHT22;18955;51.224;8.482;2023-06-04T05:10:39;10.30;68.20
32506;DHT22;18955;51.224;8.482;2023-06-04T05:13:06;10.20;68.20
32506;DHT22;18955;51.224;8.482;2023-06-04T05:15:53;10.20;68.30
32506;DHT22;18955;51.224;8.482;2023-06-04T05:18:22;10.20;68.40
32506;DHT22;18955;51.224;8.482;2023-06-04T05:20:57;10.20;68.40
32506;DHT22;18955;51.224;8.482;2023-06-04T05:23:24;10.10;68.40
32506;DHT22;18955;51.224;8.482;2023-06-04T05:25:51;10.10;68.40
32506;DHT22;18955;51.224;8.482;2023-06-04T05:28:19;10.10;68.50
32506;DHT22;18955;51.224;8.482;2023-06-04T05:30:46;10.10;68.50
32506;DHT22;18955;51.224;8.482;2023-06-04T05:33:15;10.10;68.70
32506;DHT22;18955;51.224;8.482;2023-06-04T05:35:50;10.10;68.70
32506;DHT22;18955;51.224;8.482;2023-06-04T05:38:18;10.10;68.80
32506;DHT22;18955;51.224;8.482;2023-06-04T05:40:45;10.10;68.80
32506;DHT22;18955;51.224;8.482;2023-06-04T05:43:13;10.20;69.40
32506;DHT22;18955;51.224;8.482;2023-06-04T05:45:39;10.20;68.80
32506;DHT22;18955;51.224;8.482;2023-06-04T05:48:06;10.20;68.70
32506;DHT22;18955;51.224;8.482;2023-06-04T05:50:33;10.30;68.70
32506;DHT22;18955;51.224;8.482;2023-06-04T05:52:59;10.30;68.60
32506;DHT22;18955;51.224;8.482;2023-06-04T05:55:26;10.40;68.40
32506;DHT22;18955;51.224;8.482;2023-06-04T05:57:55;10.40;68.70
32506;DHT22;18955;51.224;8.482;2023-06-04T06:00:21;10.50;68.20
32506;DHT22;18955;51.224;8.482;2023-06-04T06:02:50;10.60;68.10
32506;DHT22;18955;51.224;8.482;2023-06-04T06:05:30;10.70;67.80
32506;DHT22;18955;51.224;8.482;2023-06-04T06:07:56;10.70;67.60
32506;DHT22;18955;51.224;8.482;2023-06-04T06:10:23;10.90;67.30
32506;DHT22;18955;51.224;8.482;2023-06-04T06:12:50;10.90;67.70
32506;DHT22;18955;51.224;8.482;2023-06-04T06:15:16;11.00;67.00
32506;DHT22;18955;51.224;8.482;2023-06-04T06:17:45;11.10;66.60
32506;DHT22;18955;51.224;8.482;2023-06-04T06:20:12;11.20;66.60
32506;DHT22;18955;51.224;8.482;2023-06-04T06:22:38;11.20;66.40
32506;DHT22;18955;51.224;8.482;2023-06-04T06:25:06;11.30;66.40
32506;DHT22;18955;51.224;8.482;2023-06-04T06:27:37;11.30;66.40
32506;DHT22;18955;51.224;8.482;2023-06-04T06:30:05;11.30;66.40
32506;DHT22;18955;51.224;8.482;2023-06-04T06:32:32;11.40;66.50
32506;DHT22;18955;51.224;8.482;2023-06-04T06:34:58;11.40;66.70
32506;DHT22;18955;51.224;8.482;2023-06-04T06:37:24;11.40;66.60
32506;DHT22;18955;51.224;8.482;2023-06-04T06:39:51;11.40;66.70
32506;DHT22;18955;51.224;8.482;2023-06-04T06:42:17;11.50;66.80
32506;DHT22;18955;51.224;8.482;2023-06-04T06:44:47;11.50;67.00
32506;DHT22;18955;51.224;8.482;2023-06-04T06:47:13;11.50;67.10
32506;DHT22;18955;51.224;8.482;2023-06-04T06:49:40;11.50;67.10
32506;DHT22;18955;51.224;8.482;2023-06-04T06:52:06;11.50;67.00
32506;DHT22;18955;51.224;8.482;2023-06-04T06:54:32;11.50;67.20
32506;DHT22;18955;51.224;8.482;2023-06-04T06:56:59;11.60;67.10
32506;DHT22;18955;51.224;8.482;2023-06-04T06:59:25;11.60;67.00
32506;DHT22;18955;51.224;8.482;2023-06-04T07:01:51;11.70;67.30
32506;DHT22;18955;51.224;8.482;2023-06-04T07:04:17;11.70;67.50
32506;DHT22;18955;51.224;8.482;2023-06-04T07:06:44;11.80;67.60
32506;DHT22;18955;51.224;8.482;2023-06-04T07:09:10;11.80;67.40
32506;DHT22;18955;51.224;8.482;2023-06-04T07:11:37;11.80;67.50
32506;DHT22;18955;51.224;8.482;2023-06-04T07:14:03;11.90;67.60
32506;DHT22;18955;51.224;8.482;2023-06-04T07:16:29;11.90;67.50
32506;DHT22;18955;51.224;8.482;2023-06-04T07:18:56;12.00;67.90
32506;DHT22;18955;51.224;8.482;2023-06-04T07:21:22;12.00;67.90
32506;DHT22;18955;51.224;8.482;2023-06-04T07:23:50;12.10;67.90
32506;DHT22;18955;51.224;8.482;2023-06-04T07:26:17;12.10;67.90
32506;DHT22;18955;51.224;8.482;2023-06-04T07:28:44;12.20;67.90
32506;DHT22;18955;51.224;8.482;2023-06-04T07:31:10;12.20;67.70
32506;DHT22;18955;51.224;8.482;2023-06-04T07:33:37;12.20;67.80
32506;DHT22;18955;51.224;8.482;2023-06-04T07:36:16;12.30;68.20
32506;DHT22;18955;51.224;8.482;2023-06-04T07:38:42;12.30;68.20
32506;DHT22;18955;51.224;8.482;2023-06-04T07:41:09;12.30;68.10
32506;DHT22;18955;51.224;8.482;2023-06-04T07:43:36;12.40;68.00
32506;DHT22;18955;51.224;8.482;2023-06-04T07:46:06;12.40;68.30
32506;DHT22;18955;51.224;8.482;2023-06-04T07:48:32;12.50;68.30
32506;DHT22;18955;51.224;8.482;2023-06-04T07:50:59;12.50;68.30
32506;DHT22;18955;51.224;8.482;2023-06-04T07:53:26;12.50;68.00
32506;DHT22;18955;51.224;8.482;2023-06-04T07:55:53;12.50;68.10
32506;DHT22;18955;51.224;8.482;2023-06-04T07:58:19;12.60;68.10
32506;DHT22;18955;51.224;8.482;2023-06-04T08:00:46;12.60;68.30
32506;DHT22;18955;51.224;8.482;2023-06-04T08:03:12;12.70;68.60
32506;DHT22;18955;51.224;8.482;2023-06-04T08:05:38;12.70;68.70
32506;DHT22;18955;51.224;8.482;2023-06-04T08:08:04;12.70;68.60
32506;DHT22;18955;51.224;8.482;2023-06-04T08:10:31;12.80;68.90
32506;DHT22;18955;51.224;8.482;2023-06-04T08:12:57;12.80;68.50
32506;DHT22;18955;51.224;8.482;2023-06-04T08:15:23;12.80;68.90
32506;DHT22;18955;51.224;8.482;2023-06-04T08:17:50;12.80;68.40
32506;DHT22;18955;51.224;8.482;2023-06-04T08:20:17;12.90;68.40
32506;DHT22;18955;51.224;8.482;2023-06-04T08:22:43;12.90;68.30
32506;DHT22;18955;51.224;8.482;2023-06-04T08:25:09;13.00;68.10
32506;DHT22;18955;51.224;8.482;2023-06-04T08:27:36;13.00;68.50
32506;DHT22;18955;51.224;8.482;2023-06-04T08:30:04;13.00;68.70
32506;DHT22;18955;51.224;8.482;2023-06-04T08:32:31;13.00;68.70
32506;DHT22;18955;51.224;8.482;2023-06-04T08:34:57;13.10;68.80
32506;DHT22;18955;51.224;8.482;2023-06-04T08:37:23;13.10;68.90
32506;DHT22;18955;51.224;8.482;2023-06-04T08:39:51;13.10;68.90
32506;DHT22;18955;51.224;8.482;2023-06-04T08:42:30;13.10;69.10
32506;DHT22;18955;51.224;8.482;2023-06-04T08:44:59;13.20;68.50
32506;DHT22;18955;51.224;8.482;2023-06-04T08:47:25;13.20;69.00
32506;DHT22;18955;51.224;8.482;2023-06-04T08:49:52;13.20;69.20
32506;DHT22;18955;51.224;8.482;2023-06-04T08:52:18;13.30;69.30
32506;DHT22;18955;51.224;8.482;2023-06-04T08:54:49;13.30;69.40
32506;DHT22;18955;51.224;8.482;2023-06-04T08:57:20;13.30;69.40
32506;DHT22;18955;51.224;8.482;2023-06-04T08:59:47;13.30;69.40
32506;DHT22;18955;51.224;8.482;2023-06-04T09:02:16;13.40;69.60
32506;DHT22;18955;51.224;8.482;2023-06-04T09:04:43;13.40;69.80
32506;DHT22;18955;51.224;8.482;2023-06-04T09:07:12;13.50;69.30
32506;DHT22;18955;51.224;8.482;2023-06-04T09:09:40;13.40;68.80
32506;DHT22;18955;51.224;8.482;2023-06-04T09:12:10;13.50;69.90
32506;DHT22;18955;51.224;8.482;2023-06-04T09:14:37;13.60;69.70
32506;DHT22;18955;51.224;8.482;2023-06-04T09:17:03;13.60;69.70
32506;DHT22;18955;51.224;8.482;2023-06-04T09:19:29;13.60;69.90
32506;DHT22;18955;51.224;8.482;2023-06-04T09:21:57;13.60;69.80
32506;DHT22;18955;51.224;8.482;2023-06-04T09:24:25;13.60;70.00
32506;DHT22;18955;51.224;8.482;2023-06-04T09:26:52;13.70;69.80
32506;DHT22;18955;51.224;8.482;2023-06-04T09:29:18;13.70;69.70
32506;DHT22;18955;51.224;8.482;2023-06-04T09:31:46;13.70;69.60
32506;DHT22;18955;51.224;8.482;2023-06-04T09:34:13;13.80;69.40
32506;DHT22;18955;51.224;8.482;2023-06-04T09:36:40;13.90;69.40
32506;DHT22;18955;51.224;8.482;2023-06-04T09:39:16;13.80;69.20
32506;DHT22;18955;51.224;8.482;2023-06-04T09:41:43;13.90;69.50
32506;DHT22;18955;51.224;8.482;2023-06-04T09:44:09;13.90;69.50
32506;DHT22;18955;51.224;8.482;2023-06-04T09:46:37;13.90;69.70
32506;DHT22;18955;51.224;8.482;2023-06-04T09:49:05;14.00;69.70
32506;DHT22;18955;51.224;8.482;2023-06-04T09:51:32;13.90;69.90
32506;DHT22;18955;51.224;8.482;2023-06-04T09:54:00;14.00;69.80
32506;DHT22;18955;51.224;8.482;2023-06-04T09:56:27;14.10;69.40
32506;DHT22;18955;51.224;8.482;2023-06-04T09:59:02;14.10;69.40
32506;DHT22;18955;51.224;8.482;2023-06-04T10:01:29;14.10;69.00
32506;DHT22;18955;51.224;8.482;2023-06-04T10:03:59;14.10;69.30
32506;DHT22;18955;51.224;8.482;2023-06-04T10:06:33;14.20;69.40
32506;DHT22;18955;51.224;8.482;2023-06-04T10:09:04;14.20;69.90
32506;DHT22;18955;51.224;8.482;2023-06-04T10:11:34;14.20;70.50
32506;DHT22;18955;51.224;8.482;2023-06-04T10:16:37;14.30;70.20
32506;DHT22;18955;51.224;8.482;2023-06-04T10:19:07;14.20;70.10
32506;DHT22;18955;51.224;8.482;2023-06-04T10:21:34;14.30;70.00
32506;DHT22;18955;51.224;8.482;2023-06-04T10:24:03;14.30;70.00
32506;DHT22;18955;51.224;8.482;2023-06-04T10:26:30;14.30;69.80
32506;DHT22;18955;51.224;8.482;2023-06-04T10:29:00;14.30;70.00
32506;DHT22;18955;51.224;8.482;2023-06-04T10:31:27;14.30;70.00
32506;DHT22;18955;51.224;8.482;2023-06-04T10:33:54;14.40;70.70
32506;DHT22;18955;51.224;8.482;2023-06-04T10:36:22;14.40;70.80
32506;DHT22;18955;51.224;8.482;2023-06-04T10:38:50;14.40;70.60
32506;DHT22;18955;51.224;8.482;2023-06-04T10:41:18;14.40;70.60
32506;DHT22;18955;51.224;8.482;2023-06-04T10:43:45;14.50;70.40
32506;DHT22;18955;51.224;8.482;2023-06-04T10:46:13;14.50;70.10
32506;DHT22;18955;51.224;8.482;2023-06-04T10:51:14;14.50;70.10
32506;DHT22;18955;51.224;8.482;2023-06-04T10:53:41;14.50;70.20
32506;DHT22;18955;51.224;8.482;2023-06-04T10:56:07;14.60;70.50
32506;DHT22;18955;51.224;8.482;2023-06-04T10:58:34;14.60;70.70
32506;DHT22;18955;51.224;8.482;2023-06-04T11:01:01;14.60;70.60
32506;DHT22;18955;51.224;8.482;2023-06-04T11:03:37;14.60;71.00
32506;DHT22;18955;51.224;8.482;2023-06-04T11:06:14;14.70;70.70
32506;DHT22;18955;51.224;8.482;2023-06-04T11:08:41;14.60;70.70
32506;DHT22;18955;51.224;8.482;2023-06-04T11:11:14;14.60;70.90
32506;DHT22;18955;51.224;8.482;2023-06-04T11:13:42;14.70;70.70
32506;DHT22;18955;51.224;8.482;2023-06-04T11:16:19;14.70;70.80
32506;DHT22;18955;51.224;8.482;2023-06-04T11:18:58;14.70;70.40
32506;DHT22;18955;51.224;8.482;2023-06-04T11:21:29;14.70;70.80
32506;DHT22;18955;51.224;8.482;2023-06-04T11:23:57;14.70;70.90
32506;DHT22;18955;51.224;8.482;2023-06-04T11:26:37;14.70;71.30
32506;DHT22;18955;51.224;8.482;2023-06-04T11:29:11;14.70;70.70
32506;DHT22;18955;51.224;8.482;2023-06-04T11:31:45;14.70;70.90
32506;DHT22;18955;51.224;8.482;2023-06-04T11:34:29;14.80;71.00
32506;DHT22;18955;51.224;8.482;2023-06-04T11:36:55;14.80;70.90
32506;DHT22;18955;51.224;8.482;2023-06-04T11:39:22;14.80;72.00
32506;DHT22;18955;51.224;8.482;2023-06-04T11:41:50;14.80;71.10
32506;DHT22;18955;51.224;8.482;2023-06-04T11:44:19;14.80;71.20
32506;DHT22;18955;51.224;8.482;2023-06-04T11:46:47;14.80;71.40
32506;DHT22;18955;51.224;8.482;2023-06-04T11:49:15;14.80;71.30
32506;DHT22;18955;51.224;8.482;2023-06-04T11:51:50;14.80;70.70
32506;DHT22;18955;51.224;8.482;2023-06-04T11:54:17;14.90;71.10
32506;DHT22;18955;51.224;8.482;2023-06-04T11:56:44;14.90;71.10
32506;DHT22;18955;51.224;8.482;2023-06-04T11:59:14;14.90;71.10
32506;DHT22;18955;51.224;8.482;2023-06-04T12:01:42;14.90;71.40
32506;DHT22;18955;51.224;8.482;2023-06-04T12:04:18;14.90;71.60
32506;DHT22;18955;51.224;8.482;2023-06-04T12:06:52;14.90;71.40
32506;DHT22;18955;51.224;8.482;2023-06-04T12:09:23;14.90;71.50
32506;DHT22;18955;51.224;8.482;2023-06-04T12:11:50;14.90;71.50
32506;DHT22;18955;51.224;8.482;2023-06-04T12:14:17;15.00;71.30
32506;DHT22;18955;51.224;8.482;2023-06-04T12:17:09;15.00;71.20
32506;DHT22;18955;51.224;8.482;2023-06-04T12:19:50;15.00;71.30
32506;DHT22;18955;51.224;8.482;2023-06-04T12:22:16;15.00;71.30
32506;DHT22;18955;51.224;8.482;2023-06-04T12:24:48;15.00;71.30
32506;DHT22;18955;51.224;8.482;2023-06-04T12:27:14;15.00;71.30
32506;DHT22;18955;51.224;8.482;2023-06-04T12:29:41;15.00;71.40
32506;DHT22;18955;51.224;8.482;2023-06-04T12:32:09;15.10;71.50
32506;DHT22;18955;51.224;8.482;2023-06-04T12:34:38;15.10;71.60
32506;DHT22;18955;51.224;8.482;2023-06-04T12:37:04;15.10;71.60
32506;DHT22;18955;51.224;8.482;2023-06-04T12:39:35;15.10;71.30
32506;DHT22;18955;51.224;8.482;2023-06-04T12:42:03;15.10;71.50
32506;DHT22;18955;51.224;8.482;2023-06-04T12:44:31;15.10;71.50
32506;DHT22;18955;51.224;8.482;2023-06-04T12:46:57;15.20;71.50
32506;DHT22;18955;51.224;8.482;2023-06-04T12:49:23;15.20;71.40
32506;DHT22;18955;51.224;8.482;2023-06-04T12:51:49;15.20;71.50
32506;DHT22;18955;51.224;8.482;2023-06-04T12:54:16;15.20;71.70
32506;DHT22;18955;51.224;8.482;2023-06-04T12:56:43;15.20;70.50
32506;DHT22;18955;51.224;8.482;2023-06-04T12:59:10;15.20;71.50
32506;DHT22;18955;51.224;8.482;2023-06-04T13:01:36;15.20;71.40
32506;DHT22;18955;51.224;8.482;2023-06-04T13:04:03;15.30;71.50
32506;DHT22;18955;51.224;8.482;2023-06-04T13:06:30;15.30;71.60
32506;DHT22;18955;51.224;8.482;2023-06-04T13:08:56;15.30;71.00
32506;DHT22;18955;51.224;8.482;2023-06-04T13:11:22;15.30;71.40
32506;DHT22;18955;51.224;8.482;2023-06-04T13:13:49;15.30;71.30
32506;DHT22;18955;51.224;8.482;2023-06-04T13:16:15;15.30;71.70
32506;DHT22;18955;51.224;8.482;2023-06-04T13:18:41;15.40;72.00
32506;DHT22;18955;51.224;8.482;2023-06-04T13:21:08;15.40;71.90
32506;DHT22;18955;51.224;8.482;2023-06-04T13:23:34;15.40;71.90
32506;DHT22;18955;51.224;8.482;2023-06-04T13:26:00;15.40;71.60
32506;DHT22;18955;51.224;8.482;2023-06-04T13:28:27;15.40;72.00
32506;DHT22;18955;51.224;8.482;2023-06-04T13:30:53;15.40;70.90
32506;DHT22;18955;51.224;8.482;2023-06-04T13:33:19;15.50;71.50
32506;DHT22;18955;51.224;8.482;2023-06-04T13:35:47;15.50;71.70
32506;DHT22;18955;51.224;8.482;2023-06-04T13:38:13;15.50;72.00
32506;DHT22;18955;51.224;8.482;2023-06-04T13:40:39;15.50;72.00
32506;DHT22;18955;51.224;8.482;2023-06-04T13:43:06;15.60;71.90
32506;DHT22;18955;51.224;8.482;2023-06-04T13:45:35;15.60;71.80
32506;DHT22;18955;51.224;8.482;2023-06-04T13:48:01;15.60;71.90
32506;DHT22;18955;51.224;8.482;2023-06-04T13:50:32;15.60;71.80
32506;DHT22;18955;51.224;8.482;2023-06-04T13:52:58;15.70;71.70
32506;DHT22;18955;51.224;8.482;2023-06-04T13:55:24;15.70;72.00
32506;DHT22;18955;51.224;8.482;2023-06-04T13:57:50;15.70;71.80
32506;DHT22;18955;51.224;8.482;2023-06-04T14:00:17;15.80;71.50
32506;DHT22;18955;51.224;8.482;2023-06-04T14:02:43;15.70;71.80
32506;DHT22;18955;51.224;8.482;2023-06-04T14:05:09;15.80;71.90
32506;DHT22;18955;51.224;8.482;2023-06-04T14:07:36;15.90;71.80
32506;DHT22;18955;51.224;8.482;2023-06-04T14:10:02;15.90;72.00
32506;DHT22;18955;51.224;8.482;2023-06-04T14:12:28;16.00;71.80
32506;DHT22;18955;51.224;8.482;2023-06-04T14:14:54;16.00;71.40
32506;DHT22;18955;51.224;8.482;2023-06-04T14:17:20;16.00;71.80
32506;DHT22;18955;51.224;8.482;2023-06-04T14:19:47;16.10;72.00
32506;DHT22;18955;51.224;8.482;2023-06-04T14:22:13;16.10;70.80
32506;DHT22;18955;51.224;8.482;2023-06-04T14:24:40;16.20;72.00
32506;DHT22;18955;51.224;8.482;2023-06-04T14:27:07;16.20;71.80
32506;DHT22;18955;51.224;8.482;2023-06-04T14:29:35;16.20;71.80
32506;DHT22;18955;51.224;8.482;2023-06-04T14:32:02;16.30;71.90
32506;DHT22;18955;51.224;8.482;2023-06-04T14:34:29;16.30;71.60
32506;DHT22;18955;51.224;8.482;2023-06-04T14:36:55;16.40;71.60
32506;DHT22;18955;51.224;8.482;2023-06-04T14:39:28;16.50;71.70
32506;DHT22;18955;51.224;8.482;2023-06-04T14:41:54;16.50;71.80
32506;DHT22;18955;51.224;8.482;2023-06-04T14:44:21;16.60;71.60
32506;DHT22;18955;51.224;8.482;2023-06-04T14:46:48;16.60;71.00
32506;DHT22;18955;51.224;8.482;2023-06-04T14:49:15;16.70;71.70
32506;DHT22;18955;51.224;8.482;2023-06-04T14:51:41;16.70;71.40
32506;DHT22;18955;51.224;8.482;2023-06-04T14:54:08;16.80;71.30
32506;DHT22;18955;51.224;8.482;2023-06-04T14:56:34;16.80;71.20
32506;DHT22;18955;51.224;8.482;2023-06-04T14:59:01;16.90;70.90
32506;DHT22;18955;51.224;8.482;2023-06-04T15:01:27;17.00;70.90
32506;DHT22;18955;51.224;8.482;2023-06-04T15:03:53;17.10;71.50
32506;DHT22;18955;51.224;8.482;2023-06-04T15:06:20;17.10;70.90
32506;DHT22;18955;51.224;8.482;2023-06-04T15:08:46;17.10;70.80
32506;DHT22;18955;51.224;8.482;2023-06-04T15:11:14;17.20;70.80
32506;DHT22;18955;51.224;8.482;2023-06-04T15:13:40;17.30;71.40
32506;DHT22;18955;51.224;8.482;2023-06-04T15:16:06;17.30;70.90
32506;DHT22;18955;51.224;8.482;2023-06-04T15:18:33;17.40;71.10
32506;DHT22;18955;51.224;8.482;2023-06-04T15:20:59;17.50;70.80
32506;DHT22;18955;51.224;8.482;2023-06-04T15:23:25;17.50;70.90
32506;DHT22;18955;51.224;8.482;2023-06-04T15:25:52;17.60;70.20
32506;DHT22;18955;51.224;8.482;2023-06-04T15:28:18;17.60;70.50
32506;DHT22;18955;51.224;8.482;2023-06-04T15:30:44;17.70;70.50
32506;DHT22;18955;51.224;8.482;2023-06-04T15:33:10;17.70;70.40
32506;DHT22;18955;51.224;8.482;2023-06-04T15:35:36;17.80;70.90
32506;DHT22;18955;51.224;8.482;2023-06-04T15:38:03;17.90;70.60
32506;DHT22;18955;51.224;8.482;2023-06-04T15:40:29;18.00;70.90
32506;DHT22;18955;51.224;8.482;2023-06-04T15:42:55;18.00;70.80
32506;DHT22;18955;51.224;8.482;2023-06-04T15:45:21;18.00;70.80